createdAt,value
2022-09-10T00:01:28.327Z,98897.81
2022-09-10T00:03:56.433Z,98889.72
2022-09-10T00:06:27.700Z,98895.63
2022-09-10T00:08:58.961Z,98893.25
2022-09-10T00:11:27.991Z,98882.63
2022-09-10T00:13:55.519Z,98880.56
2022-09-10T00:16:22.173Z,98879.84
2022-09-10T00:18:49.020Z,98888.31
2022-09-10T00:21:18.609Z,98888.59
2022-09-10T00:23:45.711Z,98894.69
2022-09-10T00:26:23.353Z,98890.34
2022-09-10T00:28:51.665Z,98891.00
2022-09-10T00:31:19.697Z,98886.25
2022-09-10T00:33:46.205Z,98896.06
2022-09-10T00:36:36.048Z,98884.13
2022-09-10T00:39:06.527Z,98895.75
2022-09-10T00:41:35.132Z,98896.88
2022-09-10T00:44:04.945Z,98892.34
2022-09-10T00:46:35.423Z,98897.44
2022-09-10T00:49:09.995Z,98893.72
2022-09-10T00:51:36.934Z,98899.13
2022-09-10T00:54:05.571Z,98898.94
2022-09-10T00:56:34.448Z,98897.34
2022-09-10T00:59:02.748Z,98897.75
2022-09-10T01:01:29.185Z,98902.28
2022-09-10T01:03:56.014Z,98904.34
2022-09-10T01:06:23.068Z,98898.28
2022-09-10T01:08:49.604Z,98899.69
2022-09-10T01:11:34.625Z,98906.56
2022-09-10T01:14:06.966Z,98903.56
2022-09-10T01:17:03.447Z,98905.91
2022-09-10T01:19:41.331Z,98901.91
2022-09-10T01:22:35.557Z,98892.75
2022-09-10T01:25:31.215Z,98899.19
2022-09-10T01:28:04.984Z,98895.63
2022-09-10T01:30:42.337Z,98901.78
2022-09-10T01:33:16.334Z,98900.09
2022-09-10T01:35:47.757Z,98896.25
2022-09-10T01:38:20.515Z,98900.78
2022-09-10T01:40:47.737Z,98893.13
2022-09-10T01:43:14.839Z,98899.59
2022-09-10T01:45:47.234Z,98905.19
2022-09-10T01:48:44.667Z,98904.06
2022-09-10T01:51:40.999Z,98899.00
2022-09-10T01:54:33.535Z,98898.66
2022-09-10T02:04:24.069Z,98888.22
2022-09-10T02:06:51.534Z,98888.69
2022-09-10T02:09:19.163Z,98884.50
2022-09-10T02:11:51.840Z,98875.72
2022-09-10T02:14:18.299Z,98877.41
2022-09-10T02:16:51.375Z,98885.69
2022-09-10T02:19:18.119Z,98878.41
2022-09-10T02:21:44.862Z,98881.13
2022-09-10T02:24:12.857Z,98875.06
2022-09-10T02:26:42.750Z,98881.06
2022-09-10T02:29:11.043Z,98876.03
2022-09-10T02:31:37.524Z,98871.88
2022-09-10T02:34:03.971Z,98879.97
2022-09-10T02:36:31.808Z,98877.28
2022-09-10T02:39:00.264Z,98879.16
2022-09-10T02:41:26.582Z,98879.97
2022-09-10T02:43:53.052Z,98880.50
2022-09-10T02:46:20.019Z,98883.38
2022-09-10T02:48:46.352Z,98876.31
2022-09-10T02:51:13.071Z,98881.19
2022-09-10T02:53:39.615Z,98878.13
2022-09-10T02:56:07.708Z,98879.69
2022-09-10T02:58:34.629Z,98883.03
2022-09-10T03:01:16.625Z,98886.38
2022-09-10T03:03:43.013Z,98882.50
2022-09-10T03:06:09.919Z,98881.69
2022-09-10T03:08:36.378Z,98887.91
2022-09-10T03:11:04.926Z,98892.97
2022-09-10T03:13:31.287Z,98883.81
2022-09-10T03:16:03.908Z,98889.09
2022-09-10T03:18:31.779Z,98886.03
2022-09-10T03:21:09.851Z,98889.03
2022-09-10T03:23:37.473Z,98889.91
2022-09-10T03:26:06.027Z,98891.91
2022-09-10T03:28:33.426Z,98886.50
2022-09-10T03:31:01.154Z,98888.88
2022-09-10T03:33:28.456Z,98889.34
2022-09-10T03:35:55.210Z,98881.06
2022-09-10T03:38:22.274Z,98895.78
2022-09-10T03:40:49.167Z,98887.84
2022-09-10T03:43:16.529Z,98892.91
2022-09-10T03:45:44.069Z,98887.69
2022-09-10T03:48:11.042Z,98887.28
2022-09-10T03:50:37.471Z,98887.50
2022-09-10T03:53:03.948Z,98889.28
2022-09-10T03:55:30.384Z,98881.38
2022-09-10T03:57:58.156Z,98889.13
2022-09-10T04:00:24.524Z,98885.69
2022-09-10T04:02:50.839Z,98877.66
2022-09-10T04:05:17.434Z,98875.63
2022-09-10T04:07:43.996Z,98873.91
2022-09-10T04:10:10.887Z,98875.63
2022-09-10T04:12:37.685Z,98874.78
2022-09-10T04:15:04.635Z,98873.56
2022-09-10T04:17:31.332Z,98874.09
2022-09-10T04:19:57.715Z,98872.38
2022-09-10T04:22:24.646Z,98871.03
2022-09-10T04:24:51.183Z,98868.81
2022-09-10T04:27:17.507Z,98868.50
2022-09-10T04:29:43.978Z,98867.88
2022-09-10T04:32:10.556Z,98869.72
2022-09-10T04:34:36.942Z,98874.31
2022-09-10T04:37:03.384Z,98869.38
2022-09-10T04:39:29.889Z,98880.19
2022-09-10T04:41:56.369Z,98880.84
2022-09-10T04:44:22.710Z,98884.19
2022-09-10T04:46:49.067Z,98886.41
2022-09-10T04:49:15.420Z,98886.59
2022-09-10T04:51:41.842Z,98886.59
2022-09-10T04:54:08.201Z,98884.72
2022-09-10T04:56:34.846Z,98890.50
2022-09-10T04:59:01.236Z,98884.25
2022-09-10T05:01:28.852Z,98896.25
2022-09-10T05:03:55.247Z,98888.16
2022-09-10T05:06:21.680Z,98886.94
2022-09-10T05:08:48.007Z,98889.47
2022-09-10T05:11:14.380Z,98896.75
2022-09-10T05:13:41.555Z,98885.41
2022-09-10T05:16:07.952Z,98890.97
2022-09-10T05:18:34.506Z,98895.47
2022-09-10T05:21:00.864Z,98892.28
2022-09-10T05:23:27.247Z,98899.69
2022-09-10T05:25:53.950Z,98886.53
2022-09-10T05:28:21.803Z,98897.81
2022-09-10T05:30:51.742Z,98901.53
2022-09-10T05:33:18.393Z,98891.56
2022-09-10T05:35:44.739Z,98897.34
2022-09-10T05:38:14.040Z,98899.47
2022-09-10T05:40:42.422Z,98899.13
2022-09-10T05:43:08.909Z,98908.63
2022-09-10T05:45:35.313Z,98898.63
2022-09-10T05:48:02.950Z,98904.88
2022-09-10T05:50:30.254Z,98902.47
2022-09-10T05:52:56.708Z,98900.44
2022-09-10T05:55:23.118Z,98908.03
2022-09-10T05:57:49.478Z,98906.00
2022-09-10T06:00:15.981Z,98908.88
2022-09-10T06:02:42.515Z,98911.19
2022-09-10T06:05:09.238Z,98913.53
2022-09-10T06:07:35.632Z,98913.19
2022-09-10T06:10:02.004Z,98916.19
2022-09-10T06:12:28.381Z,98914.31
2022-09-10T06:14:54.765Z,98916.53
2022-09-10T06:17:21.139Z,98924.94
2022-09-10T06:19:47.498Z,98920.41
2022-09-10T06:22:14.432Z,98931.69
2022-09-10T06:24:40.812Z,98926.09
2022-09-10T06:27:07.186Z,98927.31
2022-09-10T06:29:36.021Z,98922.94
2022-09-10T06:32:03.057Z,98923.69
2022-09-10T06:34:29.381Z,98928.25
2022-09-10T06:36:58.130Z,98923.69
2022-09-10T06:39:24.960Z,98926.88
2022-09-10T06:41:51.445Z,98927.72
2022-09-10T06:44:18.286Z,98933.41
2022-09-10T06:47:25.761Z,98925.50
2022-09-10T06:49:31.273Z,98923.78
2022-09-10T06:51:57.741Z,98925.88
2022-09-10T06:54:25.418Z,98930.06
2022-09-10T06:56:52.714Z,98934.16
2022-09-10T06:59:19.283Z,98929.88
2022-09-10T07:01:47.523Z,98925.03
2022-09-10T07:04:14.088Z,98929.03
2022-09-10T07:06:40.423Z,98922.59
2022-09-10T07:09:06.854Z,98915.69
2022-09-10T07:11:35.081Z,98922.34
2022-09-10T07:14:03.308Z,98924.28
2022-09-10T07:16:29.707Z,98918.38
2022-09-10T07:18:58.277Z,98923.88
2022-09-10T07:21:28.049Z,98932.78
2022-09-10T07:23:58.565Z,98930.06
2022-09-10T07:26:25.766Z,98920.56
2022-09-10T07:28:52.530Z,98919.59
2022-09-10T07:31:33.858Z,98918.56
2022-09-10T07:34:04.170Z,98918.25
2022-09-10T07:36:30.646Z,98915.56
2022-09-10T07:38:58.878Z,98923.44
2022-09-10T07:41:29.751Z,98924.44
2022-09-10T07:43:56.957Z,98929.47
2022-09-10T07:46:25.415Z,98938.81
2022-09-10T07:48:57.523Z,98930.69
2022-09-10T07:51:25.294Z,98931.28
2022-09-10T07:53:53.998Z,98936.97
2022-09-10T07:56:20.537Z,98937.25
2022-09-10T07:58:47.137Z,98937.59
2022-09-10T08:01:13.665Z,98938.47
2022-09-10T08:03:41.459Z,98935.22
2022-09-10T08:06:09.364Z,98937.97
2022-09-10T08:08:38.248Z,98948.19
2022-09-10T08:11:12.246Z,98940.50
2022-09-10T08:13:44.975Z,98951.06
2022-09-10T08:16:17.136Z,98946.84
2022-09-10T08:18:43.692Z,98950.19
2022-09-10T08:21:10.654Z,98950.06
2022-09-10T08:23:39.444Z,98951.00
2022-09-10T08:26:08.369Z,98961.28
2022-09-10T08:28:35.881Z,98960.91
2022-09-10T08:31:04.238Z,98960.91
2022-09-10T08:33:35.114Z,98961.63
2022-09-10T08:36:02.565Z,98949.56
2022-09-10T08:38:34.565Z,98951.19
2022-09-10T08:41:02.607Z,98942.81
2022-09-10T08:43:49.039Z,98948.63
2022-09-10T08:46:23.326Z,98948.63
2022-09-10T08:49:00.920Z,98952.00
2022-09-10T08:51:29.951Z,98949.91
2022-09-10T08:54:14.791Z,98955.03
2022-09-10T08:56:42.486Z,98957.97
2022-09-10T08:59:46.745Z,98947.56
2022-09-10T09:02:47.273Z,98950.72
2022-09-10T09:05:22.746Z,98940.94
2022-09-10T09:07:51.019Z,98934.31
2022-09-10T09:10:56.387Z,98945.44
2022-09-10T09:13:48.771Z,98928.34
2022-09-10T09:16:41.302Z,98923.94
2022-09-10T09:19:18.115Z,98920.59
2022-09-10T09:21:54.501Z,98923.94
2022-09-10T09:24:36.582Z,98928.53
2022-09-10T09:27:10.006Z,98924.13
2022-09-10T09:29:46.160Z,98935.81
2022-09-10T09:32:16.565Z,98921.75
2022-09-10T09:34:51.787Z,98939.22
2022-09-10T09:37:24.056Z,98951.25
2022-09-10T09:40:05.848Z,98958.28
2022-09-10T09:42:59.205Z,98966.09
2022-09-10T09:45:38.989Z,98974.19
2022-09-10T09:48:07.219Z,98970.59
2022-09-10T09:50:38.694Z,98979.06
2022-09-10T09:53:05.047Z,98980.50
2022-09-10T09:55:35.947Z,98978.47
2022-09-10T09:58:20.866Z,98973.69
2022-09-10T10:01:05.838Z,98986.84
2022-09-10T10:03:35.343Z,98980.09
2022-09-10T10:06:06.824Z,98984.94
2022-09-10T10:08:42.485Z,98982.38
2022-09-10T10:11:12.195Z,98991.97
2022-09-10T10:13:41.666Z,98992.06
2022-09-10T10:16:22.423Z,98979.31
2022-09-10T10:18:50.211Z,98975.44
2022-09-10T10:21:16.540Z,98972.03
2022-09-10T10:23:44.044Z,98965.16
2022-09-10T10:26:21.072Z,98953.25
2022-09-10T10:28:50.176Z,98953.13
2022-09-10T10:31:18.130Z,98940.19
2022-09-10T10:34:20.398Z,98933.94
2022-09-10T10:37:03.541Z,98941.69
2022-09-10T10:39:52.336Z,98934.19
2022-09-10T10:42:46.697Z,98921.41
2022-09-10T10:45:37.132Z,98925.16
2022-09-10T10:48:09.951Z,98928.75
2022-09-10T10:50:54.813Z,98922.44
2022-09-10T10:53:43.548Z,98920.59
2022-09-10T10:56:35.972Z,98923.53
2022-09-10T10:59:16.429Z,98926.66
2022-09-10T11:01:51.031Z,98933.78
2022-09-10T11:04:30.078Z,98927.28
2022-09-10T11:07:05.502Z,98939.84
2022-09-10T11:09:38.858Z,98927.31
2022-09-10T11:12:11.849Z,98920.34
2022-09-10T11:15:02.387Z,98923.50
2022-09-10T11:17:47.118Z,98922.84
2022-09-10T11:20:28.923Z,98931.00
2022-09-10T11:22:59.098Z,98920.34
2022-09-10T11:25:34.280Z,98919.13
2022-09-10T11:28:13.470Z,98918.94
2022-09-10T11:30:45.076Z,98922.47
2022-09-10T11:33:23.228Z,98918.91
2022-09-10T11:36:20.613Z,98921.63
2022-09-10T11:39:11.820Z,98925.63
2022-09-10T11:41:42.209Z,98919.97
2022-09-10T11:45:02.891Z,98912.63
2022-09-10T11:47:44.594Z,98912.44
2022-09-10T11:50:21.536Z,98921.41
2022-09-10T11:52:48.594Z,98917.22
2022-09-10T11:55:17.378Z,98912.16
2022-09-10T11:58:03.049Z,98906.06
2022-09-10T12:00:34.747Z,98904.56
2022-09-10T12:04:01.982Z,98913.34
2022-09-10T12:07:03.340Z,98895.13
2022-09-10T12:09:48.726Z,98894.25
2022-09-10T12:12:20.635Z,98899.50
2022-09-10T12:14:47.412Z,98885.25
2022-09-10T12:17:18.507Z,98897.00
2022-09-10T12:19:49.698Z,98898.66
2022-09-10T12:22:24.575Z,98904.56
2022-09-10T12:24:55.420Z,98901.63
2022-09-10T12:27:43.631Z,98909.03
2022-09-10T12:30:35.975Z,98908.00
2022-09-10T12:33:24.552Z,98906.38
2022-09-10T12:35:52.167Z,98910.13
2022-09-10T12:38:48.251Z,98912.44
2022-09-10T12:41:20.960Z,98911.38
2022-09-10T12:43:47.246Z,98924.31
2022-09-10T12:46:13.573Z,98908.00
2022-09-10T12:48:47.345Z,98918.47
2022-09-10T12:51:46.139Z,98914.06
2022-09-10T12:55:00.519Z,98914.06
2022-09-10T12:57:41.477Z,98926.44
2022-09-10T13:00:22.355Z,98921.41
2022-09-10T13:03:11.237Z,98913.66
2022-09-10T13:05:51.239Z,98916.38
2022-09-10T13:08:21.435Z,98907.59
2022-09-10T13:11:08.602Z,98902.56
2022-09-10T13:13:43.648Z,98907.41
2022-09-10T13:16:14.424Z,98911.81
2022-09-10T13:18:41.873Z,98910.97
2022-09-10T13:21:40.691Z,98908.81
2022-09-10T13:24:35.918Z,98908.00
2022-09-10T13:27:16.983Z,98906.75
2022-09-10T13:29:53.733Z,98905.69
2022-09-10T13:32:55.114Z,98893.38
2022-09-10T13:36:06.677Z,98895.03
2022-09-10T13:39:12.106Z,98891.69
2022-09-10T13:42:03.139Z,98889.59
2022-09-10T13:44:45.175Z,98885.75
2022-09-10T13:47:28.031Z,98882.22
2022-09-10T13:50:00.424Z,98883.31
2022-09-10T13:52:35.024Z,98891.28
2022-09-10T13:55:05.086Z,98910.97
2022-09-10T13:57:38.766Z,98919.91
2022-09-10T14:00:08.779Z,98934.50
2022-09-10T14:02:47.718Z,98945.56
2022-09-10T14:05:31.742Z,98946.91
2022-09-10T14:08:02.987Z,98953.78
2022-09-10T14:10:29.506Z,98958.78
2022-09-10T14:12:57.830Z,98961.63
2022-09-10T14:15:29.971Z,98958.28
2022-09-10T14:17:59.557Z,98970.81
2022-09-10T14:20:34.875Z,98959.50
2022-09-10T14:23:07.607Z,98963.16
2022-09-10T14:25:36.591Z,98964.41
2022-09-10T14:28:19.048Z,98969.38
2022-09-10T14:30:48.551Z,98970.66
2022-09-10T14:33:20.820Z,98971.47
2022-09-10T14:35:51.368Z,98969.78
2022-09-10T14:38:29.034Z,98970.97
2022-09-10T14:41:05.431Z,98975.66
2022-09-10T14:43:35.547Z,98971.44
2022-09-10T14:46:04.019Z,98961.84
2022-09-10T14:48:38.455Z,98959.31
2022-09-10T14:51:14.404Z,98972.50
2022-09-10T14:53:42.119Z,98969.56
2022-09-10T14:56:23.121Z,98966.22
2022-09-10T14:59:03.169Z,98962.94
2022-09-10T15:01:30.543Z,98959.31
2022-09-10T15:03:57.711Z,98960.66
2022-09-10T15:06:26.587Z,98966.66
2022-09-10T15:08:55.858Z,98976.66
2022-09-10T15:11:24.981Z,98976.47
2022-09-10T15:13:52.582Z,98974.34
2022-09-10T15:16:18.901Z,98980.59
2022-09-10T15:18:45.241Z,98982.66
2022-09-10T15:21:14.901Z,98985.81
2022-09-10T15:23:42.088Z,98978.13
2022-09-10T15:26:11.998Z,98983.81
2022-09-10T15:28:38.424Z,98982.44
2022-09-10T15:31:05.643Z,98986.31
2022-09-10T15:33:32.151Z,98982.91
2022-09-10T15:35:58.555Z,98973.03
2022-09-10T15:38:25.123Z,98975.38
2022-09-10T15:40:52.127Z,98976.69
2022-09-10T15:43:19.901Z,98971.69
2022-09-10T15:45:47.439Z,98969.19
2022-09-10T15:48:13.836Z,98957.13
2022-09-10T15:50:41.599Z,98965.63
2022-09-10T15:53:11.770Z,98961.72
2022-09-10T15:55:38.912Z,98955.25
2022-09-10T15:58:05.448Z,98960.00
2022-09-10T16:00:34.232Z,98949.13
2022-09-10T16:03:00.863Z,98962.06
2022-09-10T16:05:27.228Z,98950.38
2022-09-10T16:07:53.571Z,98957.28
2022-09-10T16:10:19.993Z,98963.91
2022-09-10T16:12:46.344Z,98958.47
2022-09-10T16:15:12.712Z,98959.88
2022-09-10T16:17:39.064Z,98966.53
2022-09-10T16:20:05.795Z,98967.75
2022-09-10T16:22:32.212Z,98965.22
2022-09-10T16:24:58.539Z,98957.75
2022-09-10T16:27:24.942Z,98968.63
2022-09-10T16:29:51.315Z,98958.97
2022-09-10T16:32:17.753Z,98964.19
2022-09-10T16:34:44.099Z,98971.03
2022-09-10T16:37:10.424Z,98961.88
2022-09-10T16:39:36.822Z,98957.09
2022-09-10T16:42:03.412Z,98961.44
2022-09-10T16:44:30.296Z,98955.97
2022-09-10T16:46:59.183Z,98960.16
2022-09-10T16:49:25.509Z,98958.44
2022-09-10T16:51:51.849Z,98962.59
2022-09-10T16:54:22.356Z,98959.03
2022-09-10T16:56:50.113Z,98963.56
2022-09-10T16:59:22.190Z,98969.19
2022-09-10T17:01:50.050Z,98969.38
2022-09-10T17:04:21.390Z,98970.63
2022-09-10T17:06:51.045Z,98964.94
2022-09-10T17:09:17.403Z,98977.06
2022-09-10T17:11:43.757Z,98971.13
2022-09-10T17:14:11.374Z,98976.75
2022-09-10T17:16:40.359Z,98982.84
2022-09-10T17:19:10.855Z,98980.06
2022-09-10T17:21:39.144Z,98982.00
2022-09-10T17:24:07.668Z,98980.91
2022-09-10T17:26:37.036Z,98981.09
2022-09-10T17:29:06.349Z,98988.97
2022-09-10T17:31:33.731Z,98985.19
2022-09-10T17:34:00.881Z,98985.63
2022-09-10T17:36:27.982Z,98982.53
2022-09-10T17:38:55.303Z,98986.47
2022-09-10T17:41:23.486Z,98989.88
2022-09-10T17:43:49.844Z,98996.91
2022-09-10T17:46:18.981Z,98995.66
2022-09-10T17:48:45.808Z,99000.97
2022-09-10T17:51:14.617Z,99003.88
2022-09-10T17:53:41.075Z,99005.06
2022-09-10T17:56:10.126Z,99007.59
2022-09-10T17:58:36.820Z,99009.41
2022-09-10T18:01:10.307Z,99007.78
2022-09-10T18:03:36.773Z,99010.66
2022-09-10T18:06:11.119Z,99013.13
2022-09-10T18:08:39.048Z,99012.94
2022-09-10T18:11:11.343Z,99004.38
2022-09-10T18:13:37.927Z,99009.22
2022-09-10T18:16:09.515Z,99019.63
2022-09-10T18:18:36.904Z,99012.06
2022-09-10T18:21:10.382Z,99022.44
2022-09-10T18:23:36.718Z,99017.41
2022-09-10T18:26:14.994Z,99031.34
2022-09-10T18:28:42.906Z,99052.28
2022-09-10T18:31:09.951Z,99059.75
2022-09-10T18:33:40.839Z,99059.84
2022-09-10T18:36:13.227Z,99075.84
2022-09-10T18:38:40.050Z,99077.06
2022-09-10T18:41:16.894Z,99075.13
2022-09-10T18:43:43.243Z,99068.88
2022-09-10T18:46:09.800Z,99077.53
2022-09-10T18:48:36.215Z,99080.63
2022-09-10T18:51:10.573Z,99066.91
2022-09-10T18:53:38.404Z,99082.13
2022-09-10T18:56:16.078Z,99086.50
2022-09-10T18:58:48.612Z,99103.41
2022-09-10T19:01:15.762Z,99101.53
2022-09-10T19:03:44.239Z,99111.44
2022-09-10T19:06:13.550Z,99121.44
2022-09-10T19:08:45.657Z,99139.38
2022-09-10T19:11:17.157Z,99138.31
2022-09-10T19:13:48.501Z,99144.22
2022-09-10T19:16:15.030Z,99150.38
2022-09-10T19:18:43.590Z,99152.03
2022-09-10T19:21:10.435Z,99166.91
2022-09-10T19:23:37.063Z,99164.09
2022-09-10T19:26:03.855Z,99168.47
2022-09-10T19:28:33.436Z,99171.00
2022-09-10T19:31:04.819Z,99177.63
2022-09-10T19:33:36.234Z,99185.09
2022-09-10T19:36:04.947Z,99187.13
2022-09-10T19:38:47.166Z,99187.34
2022-09-10T19:41:18.584Z,99193.41
2022-09-10T19:43:46.946Z,99187.13
2022-09-10T19:46:15.242Z,99197.31
2022-09-10T19:48:43.355Z,99189.28
2022-09-10T19:51:13.388Z,99190.22
2022-09-10T19:53:40.875Z,99197.41
2022-09-10T19:56:10.171Z,99190.69
2022-09-10T19:58:37.316Z,99186.94
2022-09-10T20:01:15.538Z,99197.47
2022-09-10T20:03:46.992Z,99202.84
2022-09-10T20:06:19.331Z,99191.06
2022-09-10T20:08:47.096Z,99205.19
2022-09-10T20:11:25.558Z,99206.88
2022-09-10T20:13:57.515Z,99203.06
2022-09-10T20:16:24.986Z,99207.28
2022-09-10T20:18:51.901Z,99211.19
2022-09-10T20:21:20.541Z,99214.81
2022-09-10T20:23:49.263Z,99216.53
2022-09-10T20:26:18.447Z,99214.66
2022-09-10T20:28:45.166Z,99217.06
2022-09-10T20:31:12.751Z,99227.53
2022-09-10T20:33:42.221Z,99217.84
2022-09-10T20:36:16.976Z,99238.09
2022-09-10T20:38:44.185Z,99228.06
2022-09-10T20:41:15.754Z,99245.13
2022-09-10T20:43:42.597Z,99241.59
2022-09-10T20:46:16.950Z,99243.13
2022-09-10T20:48:48.845Z,99241.25
2022-09-10T20:51:17.934Z,99247.03
2022-09-10T20:53:44.889Z,99252.75
2022-09-10T20:56:14.059Z,99251.63
2022-09-10T20:58:41.508Z,99258.91
2022-09-10T21:01:12.190Z,99266.63
2022-09-10T21:03:40.762Z,99263.44
2022-09-10T21:06:08.563Z,99270.84
2022-09-10T21:08:36.573Z,99271.22
2022-09-10T21:11:08.319Z,99271.22
2022-09-10T21:13:36.325Z,99279.81
2022-09-10T21:16:21.040Z,99275.63
2022-09-10T21:18:54.394Z,99282.56
2022-09-10T21:21:25.342Z,99282.94
2022-09-10T21:23:55.870Z,99298.44
2022-09-10T21:26:25.193Z,99294.25
2022-09-10T21:28:57.037Z,99289.31
2022-09-10T21:31:23.888Z,99301.31
2022-09-10T21:33:50.894Z,99301.31
2022-09-10T21:36:19.664Z,99302.19
2022-09-10T21:38:47.403Z,99304.91
2022-09-10T21:41:15.876Z,99311.63
2022-09-10T21:43:47.331Z,99313.69
2022-09-10T21:46:14.448Z,99318.44
2022-09-10T21:48:42.142Z,99315.91
2022-09-10T21:51:13.133Z,99321.44
2022-09-10T21:53:41.022Z,99316.38
2022-09-10T21:56:07.927Z,99328.56
2022-09-10T21:58:36.506Z,99330.56
2022-09-10T22:01:08.630Z,99332.63
2022-09-10T22:03:35.980Z,99340.06
2022-09-10T22:06:15.108Z,99340.56
2022-09-10T22:08:43.573Z,99338.34
2022-09-10T22:11:19.089Z,99339.69
2022-09-10T22:13:51.730Z,99346.47
2022-09-10T22:16:18.385Z,99350.00
2022-09-10T22:18:45.239Z,99343.63
2022-09-10T22:21:11.622Z,99350.72
2022-09-10T22:23:39.080Z,99347.28
2022-09-10T22:26:08.574Z,99352.03
2022-09-10T22:28:35.967Z,99346.47
2022-09-10T22:31:19.006Z,99343.44
2022-09-10T22:33:50.763Z,99338.50
2022-09-10T22:36:23.575Z,99339.03
2022-09-10T22:38:56.141Z,99349.22
2022-09-10T22:41:23.049Z,99354.28
2022-09-10T22:43:50.427Z,99346.97
2022-09-10T22:46:17.425Z,99356.50
2022-09-10T22:48:45.425Z,99354.97
2022-09-10T22:51:14.282Z,99364.78
2022-09-10T22:53:42.216Z,99368.66
2022-09-10T22:56:09.901Z,99363.09
2022-09-10T22:58:36.610Z,99365.78
2022-09-10T23:01:08.857Z,99375.44
2022-09-10T23:03:35.246Z,99382.16
2022-09-10T23:06:06.785Z,99377.09
2022-09-10T23:08:34.651Z,99380.66
2022-09-10T23:11:10.153Z,99381.84
2022-09-10T23:13:37.030Z,99387.94
2022-09-10T23:16:17.614Z,99393.50
2022-09-10T23:18:48.430Z,99396.22
2022-09-10T23:21:14.795Z,99387.75
2022-09-10T23:23:45.002Z,99404.66
2022-09-10T23:26:12.131Z,99404.53
2022-09-10T23:28:40.046Z,99408.56
2022-09-10T23:31:10.631Z,99411.13
2022-09-10T23:33:37.087Z,99409.94
2022-09-10T23:36:03.630Z,99416.16
2022-09-10T23:38:31.398Z,99411.09
2022-09-10T23:41:01.341Z,99414.81
2022-09-10T23:43:28.704Z,99427.50
2022-09-10T23:45:55.422Z,99413.47
2022-09-10T23:48:25.298Z,99420.06
2022-09-10T23:50:53.114Z,99424.81
2022-09-10T23:53:20.453Z,99426.13
2022-09-10T23:55:47.477Z,99417.00
2022-09-10T23:58:15.349Z,99431.19
